This is the latest recevied weather packets stored in our database for station/object N7AWM. If no packets are shown the sender has not sent any weather packets the latest 10 day(s).
| Time | Temp. | Humidity | Pressure | Rain* | Wind** | Luminosity | Snow |
|---|---|---|---|---|---|---|---|
| 1777618793 | 11.67° C | 56% | 1014.8 hPa | 0 mm | - | - | - |
| 1777617953 | 12.22° C | 54% | 1014.8 hPa | 0 mm | - | - | - |
| 1777617113 | 13.33° C | 50% | 1014.7 hPa | 0 mm | - | - | - |
| 1777616273 | 13.33° C | 50% | 1014.7 hPa | 0 mm | - | - | - |
| 1777615433 | 12.78° C | 51% | 1014.8 hPa | 0 mm | - | - | - |
| 1777614593 | 12.22° C | 54% | 1014.8 hPa | 0 mm | - | - | - |
| 1777613753 | 12.22° C | 53% | 1014.8 hPa | 0 mm | - | - | - |
| 1777612913 | 12.78° C | 52% | 1014.8 hPa | 0 mm | - | - | - |
| 1777612074 | 13.33° C | 51% | 1014.8 hPa | 0 mm | - | - | - |
| 1777611234 | 12.78° C | 51% | 1014.7 hPa | 0 mm | - | - | - |
| 1777610394 | 12.78° C | 53% | 1014.8 hPa | 0 mm | - | - | - |
| 1777609554 | 13.33° C | 51% | 1014.7 hPa | 0 mm | - | - | - |
| 1777608714 | 13.33° C | 52% | 1014.5 hPa | 0 mm | - | - | - |
| 1777607874 | 14.44° C | 51% | 1014.5 hPa | 0 mm | - | - | - |
| 1777607034 | 15° C | 50% | 1014.4 hPa | 0 mm | - | - | - |
| 1777606194 | 14.44° C | 51% | 1014.3 hPa | 0 mm | - | - | - |
| 1777605354 | 14.44° C | 54% | 1014.3 hPa | 0 mm | - | - | - |
| 1777604514 | 16.11° C | 52% | 1014.2 hPa | 0 mm | - | - | - |
| 1777603674 | 18.89° C | 49% | 1014.1 hPa | 0 mm | - | - | - |
| 1777602834 | 20.56° C | 40% | 1014.1 hPa | 0 mm | - | - | - |
| 1777601994 | 21.67° C | 37% | 1014.2 hPa | 0 mm | - | - | - |
| 1777601154 | 21.67° C | 35% | 1014.3 hPa | 0 mm | - | - | - |
| 1777600314 | 21.67° C | 34% | 1014.4 hPa | 0 mm | - | - | - |
| 1777599474 | 22.22° C | 32% | 1014.4 hPa | 0 mm | - | - | - |
| 1777598635 | 21.67° C | 32% | 1014.5 hPa | 0 mm | - | - | - |
* Rain latest hour (hover to see other rain measurements)
** Current wind speed in m/s (hover to see current wind gust speed)